Manton, California
Current Conditions -  °F | °C
As of 2:53 AM on Friday 31 Oct 2014 (Local Time) from KRDD Reporting Station
Overcast Overcast  
Wind Chill: 60°   Ceiling: 9000
Heat Index: 60°   Visibility: 10mi
Dew Point: 52°   Wind: 6mph
Humidity: 75%   Direction: 330°NNW
Pressure: 29.8"   Gusts: NA
Location:  40.43°N, 121.87°W
Report Text: KRDD 310953Z AUTO 33005KT 10SM BKN090 OVC110 16/11 A2980 RMK AO2 SLP088 T01560111
Loading
Personal Weather Stations






























Interactive Weather Map
Tropical Storm Tracking
New forecast layout! Learn more

10-Day Weather Forecast

Advertisements
Track Severe Weather on mobile